Time;durP1;ratioP1;P1;durP2;ratioP2;P2;SDS_P1;SDS_P2;PMS_P1;PMS_P2;Temp;Humidity;BMP_temperature;BMP_pressure;BME280_temperature;BME280_humidity;BME280_pressure;Samples;Min_cycle;Max_cycle;Signal;HPM_P1;HPM_P2
2024/03/22 00:02:08;;;;;;;24.43;14.20;;;8.90;99.90;;;;;;5053399;28;20218;-78
2024/03/22 00:04:35;;;;;;;26.33;15.77;;;8.90;99.90;;;;;;5058914;28;20225;-78
2024/03/22 00:07:02;;;;;;;23.93;14.10;;;8.90;99.90;;;;;;5055357;28;20235;-78
2024/03/22 00:09:29;;;;;;;24.90;15.13;;;9.00;99.90;;;;;;5047198;28;20203;-78
2024/03/22 00:11:55;;;;;;;24.80;14.60;;;9.00;99.90;;;;;;5045132;28;20643;-78
2024/03/22 00:14:22;;;;;;;27.07;16.37;;;9.00;1.00;;;;;;5044020;28;20239;-79
2024/03/22 00:16:50;;;;;;;26.17;15.93;;;9.00;1.00;;;;;;5057647;28;20207;-79
2024/03/22 00:19:17;;;;;;;28.27;16.37;;;9.00;1.00;;;;;;5054328;28;20239;-79
2024/03/22 00:21:43;;;;;;;26.70;16.27;;;9.00;1.00;;;;;;5051441;28;20262;-79
2024/03/22 00:24:09;;;;;;;29.63;16.77;;;9.00;1.00;;;;;;5052506;28;20655;-79
2024/03/22 00:26:35;;;;;;;26.50;16.67;;;9.00;1.00;;;;;;5049891;28;20198;-79
2024/03/22 00:29:02;;;;;;;29.47;17.40;;;9.00;1.00;;;;;;5051051;28;20243;-79
2024/03/22 00:31:29;;;;;;;33.07;18.13;;;9.00;1.00;;;;;;5051450;28;20215;-79
2024/03/22 00:33:57;;;;;;;29.70;18.60;;;9.10;1.00;;;;;;5047998;28;20202;-79
2024/03/22 00:36:23;;;;;;;33.13;19.17;;;9.10;1.00;;;;;;5051880;28;20227;-79
2024/03/22 00:38:50;;;;;;;30.60;17.97;;;9.20;1.00;;;;;;5053561;28;20198;-79
2024/03/22 00:41:16;;;;;;;31.30;18.73;;;9.20;1.00;;;;;;5055752;28;20872;-78
2024/03/22 00:43:43;;;;;;;31.43;19.13;;;9.20;1.00;;;;;;5054028;28;20202;-79
2024/03/22 00:46:09;;;;;;;32.73;19.37;;;9.20;1.00;;;;;;5057942;28;20276;-78
2024/03/22 00:48:36;;;;;;;33.40;20.40;;;9.20;1.00;;;;;;5047743;28;20195;-79
2024/03/22 00:51:04;;;;;;;37.27;22.17;;;9.30;99.90;;;;;;5053528;28;20297;-78
2024/03/22 00:53:31;;;;;;;35.43;20.73;;;9.30;99.90;;;;;;5057316;28;20210;-78
2024/03/22 00:55:59;;;;;;;35.30;21.73;;;9.40;99.90;;;;;;5063069;28;20202;-78
2024/03/22 00:58:27;;;;;;;39.67;22.50;;;9.40;99.90;;;;;;5056036;28;20731;-78
2024/03/22 01:00:52;;;;;;;37.53;22.03;;;9.40;99.90;;;;;;5069671;28;20229;-78
2024/03/22 01:03:19;;;;;;;39.13;23.27;;;9.50;99.90;;;;;;5061024;28;20249;-78
2024/03/22 01:05:46;;;;;;;39.23;24.17;;;9.50;8.80;;;;;;5055568;28;20244;-78
2024/03/22 01:08:14;;;;;;;40.47;23.60;;;9.50;1.00;;;;;;5056390;28;20199;-78
2024/03/22 01:10:41;;;;;;;41.80;24.07;;;9.60;1.00;;;;;;5061007;28;20294;-78
2024/03/22 01:13:08;;;;;;;41.53;24.50;;;9.60;1.00;;;;;;5052956;28;20349;-79
2024/03/22 01:15:34;;;;;;;43.63;24.60;;;9.60;1.00;;;;;;5049193;28;20238;-79
2024/03/22 01:18:01;;;;;;;41.90;24.10;;;9.60;1.00;;;;;;5056186;28;20294;-79
2024/03/22 01:20:26;;;;;;;41.63;24.17;;;9.60;1.00;;;;;;5051669;28;20234;-79
2024/03/22 01:22:53;;;;;;;40.33;23.20;;;9.70;1.00;;;;;;5053732;28;20258;-79
2024/03/22 01:25:21;;;;;;;42.30;25.67;;;9.60;1.00;;;;;;5056190;28;20195;-78
2024/03/22 01:27:47;;;;;;;40.97;23.87;;;9.70;1.00;;;;;;5055409;28;20202;-79
2024/03/22 01:30:13;;;;;;;43.30;25.70;;;9.70;1.00;;;;;;5056921;28;20290;-79
2024/03/22 01:32:40;;;;;;;44.93;26.73;;;9.70;1.00;;;;;;5052373;28;20250;-79
2024/03/22 01:35:08;;;;;;;43.97;25.10;;;9.70;1.00;;;;;;5044838;28;20650;-79
2024/03/22 01:37:35;;;;;;;41.93;25.63;;;9.70;1.00;;;;;;5054414;28;20229;-78
2024/03/22 01:40:01;;;;;;;41.40;24.90;;;9.80;1.00;;;;;;5052301;28;20203;-79
2024/03/22 01:42:29;;;;;;;42.70;25.20;;;9.80;1.00;;;;;;5054058;28;20219;-79
2024/03/22 01:44:55;;;;;;;39.03;23.63;;;9.70;1.00;;;;;;5058999;28;20238;-79
2024/03/22 01:47:22;;;;;;;43.10;25.10;;;9.70;1.00;;;;;;5058618;28;20234;-79
2024/03/22 01:49:50;;;;;;;43.03;24.83;;;9.70;1.00;;;;;;5062825;28;20672;-79
2024/03/22 01:52:17;;;;;;;37.60;23.73;;;9.80;1.00;;;;;;5061339;28;20215;-79
2024/03/22 01:54:43;;;;;;;47.67;26.70;;;9.80;1.00;;;;;;5061360;28;20222;-79
2024/03/22 01:57:10;;;;;;;42.33;25.90;;;9.80;1.00;;;;;;5063865;28;20227;-79
2024/03/22 01:59:38;;;;;;;40.00;24.93;;;9.80;1.00;;;;;;5064756;28;20245;-79
2024/03/22 02:02:05;;;;;;;39.17;24.10;;;9.70;1.00;;;;;;5067391;28;20301;-79
2024/03/22 02:04:31;;;;;;;45.90;26.03;;;9.80;1.00;;;;;;5059643;28;20254;-79
2024/03/22 02:06:58;;;;;;;40.10;25.20;;;9.80;1.00;;;;;;5051981;28;20649;-79
2024/03/22 02:09:25;;;;;;;41.40;24.37;;;9.80;1.00;;;;;;5052033;28;20230;-79
2024/03/22 02:11:52;;;;;;;42.17;25.60;;;9.80;1.00;;;;;;5056173;28;20215;-79
2024/03/22 02:14:19;;;;;;;44.03;26.57;;;9.80;1.00;;;;;;5055497;28;20220;-79
2024/03/22 02:16:46;;;;;;;45.97;26.20;;;9.90;1.00;;;;;;5056973;28;20207;-79
2024/03/22 02:19:13;;;;;;;42.87;25.87;;;9.80;1.00;;;;;;5063077;28;20198;-79
2024/03/22 02:21:39;;;;;;;42.70;25.07;;;9.90;1.00;;;;;;5050328;28;20268;-79
2024/03/22 02:24:08;;;;;;;41.10;25.77;;;9.90;1.00;;;;;;5058472;28;20235;-78
2024/03/22 02:26:34;;;;;;;43.67;26.07;;;9.80;1.00;;;;;;5058858;28;20236;-79
2024/03/22 02:29:01;;;;;;;43.03;25.23;;;9.80;1.00;;;;;;5058228;28;20195;-79
2024/03/22 02:31:26;;;;;;;44.87;26.83;;;9.90;1.00;;;;;;5061631;28;20258;-79
2024/03/22 02:33:53;;;;;;;43.40;25.27;;;9.80;1.00;;;;;;5058959;28;20672;-79
2024/03/22 02:36:19;;;;;;;42.73;26.20;;;9.90;1.00;;;;;;5063776;28;20228;-79
2024/03/22 02:38:46;;;;;;;40.77;25.80;;;9.90;1.00;;;;;;5061351;28;20195;-79
2024/03/22 02:41:13;;;;;;;43.57;26.63;;;9.90;1.00;;;;;;5050868;28;20235;-80
2024/03/22 02:43:40;;;;;;;44.17;26.23;;;9.90;1.00;;;;;;5055596;28;20222;-79
2024/03/22 02:46:06;;;;;;;45.47;25.50;;;9.90;1.00;;;;;;5055128;28;20223;-79
2024/03/22 02:48:33;;;;;;;46.97;28.33;;;9.90;1.00;;;;;;5057046;28;20242;-79
2024/03/22 02:50:59;;;;;;;46.23;27.80;;;9.80;1.00;;;;;;5059603;28;20199;-79
2024/03/22 02:53:26;;;;;;;44.50;27.73;;;9.80;1.00;;;;;;5063450;28;20203;-78
2024/03/22 02:55:52;;;;;;;45.33;27.57;;;9.80;1.00;;;;;;5062281;28;20735;-79
2024/03/22 02:58:22;;;;;;;41.33;26.67;;;9.80;1.00;;;;;;5059373;28;20195;-79
2024/03/22 03:00:48;;;;;;;43.73;25.70;;;9.80;1.00;;;;;;5066660;28;20293;-79
2024/03/22 03:03:15;;;;;;;46.13;27.77;;;9.70;1.00;;;;;;5059378;28;20222;-78
2024/03/22 03:05:42;;;;;;;42.53;25.93;;;9.80;1.00;;;;;;5059336;28;20278;-79
2024/03/22 03:08:09;;;;;;;40.70;24.70;;;9.80;1.00;;;;;;5054450;28;20199;-80
2024/03/22 03:10:35;;;;;;;45.17;27.50;;;9.80;1.00;;;;;;5044503;28;20202;-80
2024/03/22 03:13:02;;;;;;;40.50;25.37;;;9.80;1.00;;;;;;5045948;28;20302;-79
2024/03/22 03:15:29;;;;;;;41.83;26.13;;;9.80;1.00;;;;;;5047058;28;20231;-79
2024/03/22 03:17:56;;;;;;;43.20;27.00;;;9.80;1.00;;;;;;5058689;28;20269;-79
2024/03/22 03:20:22;;;;;;;44.60;27.40;;;9.80;1.00;;;;;;5053916;28;20280;-79
2024/03/22 03:22:49;;;;;;;42.67;25.47;;;9.80;1.00;;;;;;5050449;28;20258;-79
2024/03/22 03:25:15;;;;;;;39.77;24.53;;;9.80;1.00;;;;;;5055971;28;20231;-79
2024/03/22 03:27:42;;;;;;;44.73;26.90;;;9.90;1.00;;;;;;5056715;28;20497;-80
2024/03/22 03:30:09;;;;;;;41.23;24.60;;;9.80;1.00;;;;;;5057456;28;20670;-79
2024/03/22 03:32:37;;;;;;;41.27;24.20;;;9.70;25.80;;;;;;5057524;28;20214;-79
2024/03/22 03:35:05;;;;;;;43.47;25.83;;;9.70;99.90;;;;;;5058527;28;20194;-79
2024/03/22 03:37:32;;;;;;;40.90;23.97;;;9.70;99.90;;;;;;5061864;28;20209;-79
2024/03/22 03:39:57;;;;;;;39.80;23.83;;;9.70;1.00;;;;;;5056927;28;20207;-79
2024/03/22 03:42:24;;;;;;;40.03;23.87;;;9.70;1.00;;;;;;5055576;28;20272;-79
2024/03/22 03:44:50;;;;;;;37.90;23.93;;;9.70;46.10;;;;;;5063884;28;20202;-79
2024/03/22 03:47:17;;;;;;;40.67;23.33;;;9.60;12.20;;;;;;5052737;28;20622;-79
2024/03/22 03:49:46;;;;;;;35.83;22.13;;;9.60;1.00;;;;;;5060535;28;20203;-79
2024/03/22 03:52:13;;;;;;;37.33;22.23;;;9.60;99.90;;;;;;5060866;28;20712;-79
2024/03/22 03:54:39;;;;;;;38.13;22.37;;;9.50;99.90;;;;;;5062794;28;20222;-79
2024/03/22 03:57:07;;;;;;;38.73;22.47;;;9.60;31.00;;;;;;5063212;28;20289;-79
2024/03/22 03:59:33;;;;;;;34.07;19.90;;;9.60;1.00;;;;;;5062051;28;20196;-79
2024/03/22 04:02:00;;;;;;;38.17;21.67;;;9.60;1.00;;;;;;5064375;28;20218;-79
2024/03/22 04:04:26;;;;;;;40.43;22.27;;;9.60;1.00;;;;;;5050925;28;20245;-79
2024/03/22 04:06:54;;;;;;;35.17;20.50;;;9.60;1.00;;;;;;5048448;28;20206;-79
2024/03/22 04:09:20;;;;;;;36.10;20.23;;;9.70;1.00;;;;;;5046970;28;20195;-79
2024/03/22 04:11:47;;;;;;;35.20;21.17;;;9.70;1.00;;;;;;5045235;28;20250;-79
2024/03/22 04:14:13;;;;;;;37.63;22.57;;;9.70;1.00;;;;;;5048413;28;20200;-78
2024/03/22 04:16:40;;;;;;;34.83;20.97;;;9.60;1.00;;;;;;5044907;28;20209;-78
2024/03/22 04:19:07;;;;;;;37.20;21.00;;;9.70;1.00;;;;;;5045488;28;20234;-78
2024/03/22 04:21:34;;;;;;;37.53;21.03;;;9.60;1.00;;;;;;5049889;28;20219;-80
2024/03/22 04:24:01;;;;;;;37.17;20.73;;;9.70;1.00;;;;;;5050338;28;20223;-79
2024/03/22 04:26:28;;;;;;;35.07;20.07;;;9.80;1.00;;;;;;5053545;28;20285;-79
2024/03/22 04:28:54;;;;;;;33.53;19.70;;;9.70;1.00;;;;;;5056033;28;20279;-78
2024/03/22 04:31:21;;;;;;;35.37;19.23;;;9.80;1.00;;;;;;5049635;28;20708;-79
2024/03/22 04:33:47;;;;;;;36.93;20.67;;;9.80;1.00;;;;;;5053844;28;20727;-79
2024/03/22 04:36:14;;;;;;;33.07;20.23;;;9.70;1.00;;;;;;5062057;28;20199;-80
2024/03/22 04:38:41;;;;;;;35.13;19.17;;;9.70;1.00;;;;;;5054744;28;20198;-80
2024/03/22 04:41:09;;;;;;;36.80;20.83;;;9.70;1.00;;;;;;5060119;28;20229;-79
2024/03/22 04:43:36;;;;;;;34.90;20.13;;;9.70;1.00;;;;;;5066425;28;20214;-79
2024/03/22 04:46:02;;;;;;;34.70;20.33;;;9.70;1.00;;;;;;5060820;28;20238;-80
2024/03/22 04:48:29;;;;;;;33.60;19.83;;;9.70;1.00;;;;;;5058849;28;20218;-79
2024/03/22 04:50:55;;;;;;;33.90;19.77;;;9.60;1.00;;;;;;5062228;28;20198;-80
2024/03/22 04:53:22;;;;;;;33.30;20.13;;;9.70;1.00;;;;;;5058894;28;20730;-78
2024/03/22 04:55:48;;;;;;;32.43;19.67;;;9.70;1.00;;;;;;5054399;28;20198;-80
2024/03/22 04:58:17;;;;;;;38.63;19.93;;;9.80;1.00;;;;;;5059342;28;20612;-80
2024/03/22 05:00:44;;;;;;;34.40;19.13;;;9.80;1.00;;;;;;5055697;28;20203;-80
2024/03/22 05:03:12;;;;;;;33.87;20.10;;;9.80;1.00;;;;;;5064568;28;20246;-80
2024/03/22 05:05:38;;;;;;;34.97;20.07;;;9.70;1.00;;;;;;5048872;28;20294;-80
2024/03/22 05:08:06;;;;;;;32.33;19.00;;;9.80;1.00;;;;;;5054559;28;20198;-81
2024/03/22 05:10:33;;;;;;;36.70;21.43;;;9.80;1.00;;;;;;5043710;28;20651;-80
2024/03/22 05:13:00;;;;;;;33.83;19.23;;;9.80;1.00;;;;;;5046367;28;20696;-80
2024/03/22 05:15:27;;;;;;;34.87;19.73;;;9.80;1.00;;;;;;5049834;28;20680;-80
2024/03/22 05:17:56;;;;;;;34.20;19.07;;;9.70;54.30;;;;;;5051398;28;20265;-80
2024/03/22 05:20:22;;;;;;;33.77;17.83;;;9.70;1.00;;;;;;5054710;28;20210;-80
2024/03/22 05:22:50;;;;;;;34.53;18.67;;;9.80;1.00;;;;;;5050838;28;20223;-79
2024/03/22 05:25:16;;;;;;;32.90;19.23;;;9.80;1.00;;;;;;5062067;28;20198;-79
2024/03/22 05:27:43;;;;;;;34.87;20.07;;;9.80;1.00;;;;;;5061673;28;20216;-80
2024/03/22 05:30:10;;;;;;;35.17;19.93;;;9.90;1.00;;;;;;5058301;28;20221;-79
2024/03/22 05:32:38;;;;;;;34.37;18.87;;;9.90;1.00;;;;;;5063446;28;20759;-79
2024/03/22 05:35:05;;;;;;;35.47;20.20;;;9.90;1.00;;;;;;5059832;28;20235;-80
2024/03/22 05:37:33;;;;;;;33.80;19.03;;;9.90;1.00;;;;;;5064171;28;20233;-80
2024/03/22 05:39:59;;;;;;;36.30;19.60;;;9.90;1.00;;;;;;5062565;28;20590;-79
2024/03/22 05:42:26;;;;;;;33.57;19.33;;;10.00;1.00;;;;;;5065290;28;20302;-79
2024/03/22 05:44:52;;;;;;;38.10;21.03;;;10.00;1.00;;;;;;5057873;28;20675;-79
2024/03/22 05:47:20;;;;;;;36.30;19.97;;;10.00;1.00;;;;;;5067536;28;20199;-80
2024/03/22 05:49:47;;;;;;;34.67;18.47;;;10.00;1.00;;;;;;5064372;28;20206;-80
2024/03/22 05:52:14;;;;;;;33.77;18.53;;;10.00;1.00;;;;;;5067470;28;20225;-80
2024/03/22 05:54:40;;;;;;;34.30;18.93;;;10.00;1.00;;;;;;5059695;28;20259;-80
2024/03/22 05:57:09;;;;;;;34.23;18.47;;;10.10;1.00;;;;;;5063913;28;20206;-79
2024/03/22 05:59:35;;;;;;;35.40;19.93;;;10.10;1.00;;;;;;5071745;28;20708;-79
2024/03/22 06:02:02;;;;;;;35.67;19.70;;;10.10;1.00;;;;;;5075042;28;20256;-80
2024/03/22 06:04:28;;;;;;;36.07;20.60;;;10.10;1.00;;;;;;5071903;28;20359;-80
2024/03/22 06:06:59;;;;;;;33.37;19.23;;;10.20;1.00;;;;;;5059859;28;20230;-80
2024/03/22 06:09:34;;;;;;;34.33;19.53;;;10.20;1.00;;;;;;5059520;28;20264;-79
2024/03/22 06:12:02;;;;;;;35.07;19.67;;;10.20;1.00;;;;;;5043709;28;20219;-80
2024/03/22 06:14:28;;;;;;;33.60;18.60;;;10.20;1.00;;;;;;5047920;28;20403;-79
2024/03/22 06:16:55;;;;;;;34.83;20.90;;;10.30;1.00;;;;;;5051203;28;20549;-80
2024/03/22 06:19:20;;;;;;;37.13;19.87;;;10.30;1.00;;;;;;5055141;28;20227;-79
2024/03/22 06:21:48;;;;;;;34.70;20.00;;;10.30;1.00;;;;;;5049043;28;20705;-80
2024/03/22 06:24:15;;;;;;;35.43;20.13;;;10.30;1.00;;;;;;5055344;28;20215;-80
2024/03/22 06:26:42;;;;;;;35.20;19.83;;;10.30;1.00;;;;;;5050451;28;20202;-80
2024/03/22 06:29:08;;;;;;;33.70;20.10;;;10.40;1.00;;;;;;5051332;28;20231;-80
2024/03/22 06:31:34;;;;;;;33.80;18.83;;;10.40;1.00;;;;;;5057641;28;20250;-80
2024/03/22 06:34:02;;;;;;;32.27;18.47;;;10.40;1.00;;;;;;5058992;28;20231;-80
2024/03/22 06:36:29;;;;;;;34.90;19.03;;;10.40;1.00;;;;;;5059259;28;20210;-80
2024/03/22 06:38:55;;;;;;;32.90;18.77;;;10.50;1.00;;;;;;5057081;28;20202;-79
2024/03/22 06:41:24;;;;;;;33.40;18.33;;;10.60;1.00;;;;;;5061232;28;20636;-79
2024/03/22 06:43:50;;;;;;;31.80;17.57;;;10.70;1.00;;;;;;5053560;28;20684;-79
2024/03/22 06:46:16;;;;;;;33.10;18.93;;;10.80;1.00;;;;;;5059961;28;20666;-79
2024/03/22 06:48:42;;;;;;;32.10;18.43;;;10.80;1.00;;;;;;5061783;28;20202;-79
2024/03/22 06:51:09;;;;;;;34.00;19.33;;;10.90;99.90;;;;;;5060113;28;20260;-79
2024/03/22 06:53:35;;;;;;;33.13;18.63;;;10.90;99.90;;;;;;5066491;28;20645;-79
2024/03/22 06:56:02;;;;;;;31.13;17.13;;;10.90;99.90;;;;;;5067232;28;20241;-79
2024/03/22 06:58:29;;;;;;;31.73;18.93;;;10.90;99.90;;;;;;5070412;28;20199;-79
2024/03/22 07:00:56;;;;;;;31.33;17.10;;;11.00;99.90;;;;;;5071980;28;20697;-79
2024/03/22 07:03:22;;;;;;;31.30;16.77;;;11.00;99.90;;;;;;5071420;28;20588;-79
2024/03/22 07:05:49;;;;;;;33.73;18.60;;;11.00;99.90;;;;;;5059426;28;20207;-79
2024/03/22 07:08:15;;;;;;;31.13;17.33;;;11.00;99.90;;;;;;5053445;28;20226;-79
2024/03/22 07:10:42;;;;;;;30.63;16.73;;;11.00;99.90;;;;;;5038618;28;20204;-79
2024/03/22 07:13:08;;;;;;;30.10;16.33;;;11.00;1.00;;;;;;5038397;28;20269;-79
2024/03/22 07:15:37;;;;;;;32.03;17.60;;;11.00;1.00;;;;;;5043295;28;20594;-79
2024/03/22 07:18:03;;;;;;;31.00;17.03;;;11.10;1.00;;;;;;5039915;28;20246;-79
2024/03/22 07:20:31;;;;;;;30.13;18.13;;;11.10;1.00;;;;;;5049741;28;20248;-79
2024/03/22 07:22:57;;;;;;;31.27;18.30;;;11.10;1.00;;;;;;5043410;28;20647;-79
2024/03/22 07:25:24;;;;;;;34.33;18.77;;;11.20;1.00;;;;;;5043751;28;20200;-79
2024/03/22 07:27:50;;;;;;;30.73;17.97;;;11.20;1.00;;;;;;5046421;28;20251;-80
2024/03/22 07:30:17;;;;;;;30.47;17.80;;;11.30;1.00;;;;;;5045398;28;20199;-80
2024/03/22 07:32:47;;;;;;;30.30;17.33;;;11.30;1.00;;;;;;5054567;28;20226;-80
2024/03/22 07:35:14;;;;;;;31.63;17.57;;;11.30;1.00;;;;;;5049017;28;20207;-79
2024/03/22 07:37:40;;;;;;;30.60;17.20;;;11.40;1.00;;;;;;5046358;28;20234;-80
2024/03/22 07:40:08;;;;;;;28.63;18.03;;;11.50;1.00;;;;;;5052716;28;20564;-80
2024/03/22 07:42:34;;;;;;;32.70;17.00;;;11.60;1.00;;;;;;5059075;28;20226;-80
2024/03/22 07:45:01;;;;;;;29.77;17.27;;;11.70;1.00;;;;;;5059872;28;20291;-80
2024/03/22 07:47:27;;;;;;;28.13;16.63;;;11.70;1.00;;;;;;5054128;28;20255;-80
2024/03/22 07:49:55;;;;;;;31.43;16.83;;;11.70;1.00;;;;;;5058040;28;20677;-80
2024/03/22 07:52:21;;;;;;;27.83;15.83;;;11.80;1.00;;;;;;5059777;28;20280;-80
2024/03/22 07:54:48;;;;;;;29.90;17.30;;;11.80;1.00;;;;;;5061483;28;20198;-80
2024/03/22 07:57:14;;;;;;;28.97;16.70;;;11.80;1.00;;;;;;5064446;28;20244;-80
2024/03/22 07:59:43;;;;;;;29.00;16.37;;;11.80;1.00;;;;;;5059653;28;20234;-80
2024/03/22 08:02:09;;;;;;;27.97;16.57;;;11.80;1.00;;;;;;5066526;28;20225;-80
2024/03/22 08:04:36;;;;;;;29.27;16.47;;;11.80;1.00;;;;;;5069883;28;20218;-80
2024/03/22 08:07:04;;;;;;;27.03;16.47;;;11.90;1.00;;;;;;5053513;28;20285;-80
2024/03/22 08:09:31;;;;;;;30.37;17.27;;;11.90;1.00;;;;;;5040283;28;20267;-80
2024/03/22 08:11:57;;;;;;;28.40;15.93;;;11.90;1.00;;;;;;5039113;28;20219;-80
2024/03/22 08:14:24;;;;;;;26.47;15.43;;;12.00;1.00;;;;;;5039587;28;20385;-80
2024/03/22 08:16:50;;;;;;;26.00;14.10;;;12.10;1.00;;;;;;5041592;28;20256;-80
2024/03/22 08:19:17;;;;;;;25.57;14.57;;;12.20;1.00;;;;;;5050176;28;20657;-80
2024/03/22 08:21:44;;;;;;;28.10;15.07;;;12.20;1.00;;;;;;5046235;28;20270;-80
2024/03/22 08:24:11;;;;;;;27.00;14.93;;;12.20;99.90;;;;;;5037880;28;20227;-79
2024/03/22 08:26:38;;;;;;;24.73;14.00;;;12.20;99.90;;;;;;5048344;28;20749;-79
2024/03/22 08:29:04;;;;;;;24.93;14.50;;;12.20;99.90;;;;;;5048065;28;20208;-80
2024/03/22 08:31:32;;;;;;;26.33;14.43;;;12.30;99.90;;;;;;5050477;28;20224;-80
2024/03/22 08:33:58;;;;;;;24.10;14.70;;;12.20;99.90;;;;;;5040790;28;20210;-79
2024/03/22 08:36:25;;;;;;;25.03;15.13;;;12.30;99.90;;;;;;5043129;28;20195;-80
2024/03/22 08:38:51;;;;;;;28.17;15.27;;;12.30;99.90;;;;;;5050878;28;20301;-79
2024/03/22 08:41:20;;;;;;;24.70;13.90;;;12.30;99.90;;;;;;5046012;28;20263;-80
2024/03/22 08:43:46;;;;;;;25.07;13.80;;;12.40;99.90;;;;;;5050391;28;20739;-80
2024/03/22 08:46:13;;;;;;;26.63;14.07;;;12.40;99.90;;;;;;5042776;28;20530;-80
2024/03/22 08:48:39;;;;;;;25.73;14.83;;;12.40;99.90;;;;;;5054193;28;20357;-79
2024/03/22 08:51:06;;;;;;;25.27;14.53;;;12.40;99.90;;;;;;5046230;28;20274;-80
2024/03/22 08:53:32;;;;;;;25.60;14.10;;;12.40;99.90;;;;;;5051610;28;20222;-80
2024/03/22 08:55:59;;;;;;;26.13;15.17;;;12.40;99.90;;;;;;5053463;28;20260;-79
2024/03/22 08:58:26;;;;;;;25.43;15.00;;;12.40;99.90;;;;;;5059113;28;20203;-80
2024/03/22 09:00:53;;;;;;;23.40;14.43;;;12.50;99.90;;;;;;5050217;28;20213;-80
2024/03/22 09:03:21;;;;;;;24.77;14.17;;;12.50;99.90;;;;;;5053025;28;20262;-81
2024/03/22 09:05:48;;;;;;;25.10;14.10;;;12.50;99.90;;;;;;5048010;28;20194;-80
2024/03/22 09:08:14;;;;;;;25.10;14.37;;;12.60;99.90;;;;;;5059315;28;20595;-80
2024/03/22 09:10:41;;;;;;;24.80;14.07;;;12.60;99.90;;;;;;5046463;28;20662;-80
2024/03/22 09:13:09;;;;;;;24.63;13.70;;;12.60;99.90;;;;;;5048396;28;20219;-80
2024/03/22 09:15:38;;;;;;;22.90;13.80;;;12.60;99.90;;;;;;5047108;28;20202;-80
2024/03/22 09:18:04;;;;;;;22.73;13.50;;;12.70;99.90;;;;;;5040012;28;20207;-80
2024/03/22 09:20:31;;;;;;;24.63;14.07;;;12.70;99.90;;;;;;5049432;28;20206;-81
2024/03/22 09:22:57;;;;;;;25.27;14.87;;;12.70;99.90;;;;;;5043873;28;20234;-80
2024/03/22 09:25:25;;;;;;;24.53;14.47;;;12.80;99.90;;;;;;5049180;28;20657;-79
2024/03/22 09:27:51;;;;;;;26.03;13.93;;;12.80;99.90;;;;;;5044925;28;20549;-80
2024/03/22 09:30:18;;;;;;;24.30;14.43;;;12.90;65.90;;;;;;5045187;28;20584;-80
2024/03/22 09:32:45;;;;;;;24.60;14.30;;;12.90;91.60;;;;;;5051853;28;20310;-79
2024/03/22 09:35:14;;;;;;;22.70;13.50;;;13.00;75.70;;;;;;5041414;28;20200;-80
2024/03/22 09:37:40;;;;;;;23.40;13.43;;;13.00;47.70;;;;;;5050936;28;20703;-79
2024/03/22 09:40:08;;;;;;;24.27;14.20;;;12.90;97.70;;;;;;5045312;28;20741;-79
2024/03/22 09:42:39;;;;;;;23.50;12.93;;;12.90;99.90;;;;;;5050222;28;20740;-80
2024/03/22 09:45:10;;;;;;;25.20;14.03;;;12.90;93.20;;;;;;5053447;28;20265;-80
2024/03/22 09:47:36;;;;;;;23.10;12.90;;;13.00;99.90;;;;;;5049840;28;20206;-80
2024/03/22 09:50:08;;;;;;;23.77;13.23;;;13.00;72.80;;;;;;5056691;28;20195;-79
2024/03/22 09:52:35;;;;;;;22.37;13.20;;;13.00;84.00;;;;;;5058993;28;20227;-80
2024/03/22 09:55:04;;;;;;;22.43;12.97;;;13.00;82.90;;;;;;5052096;28;20285;-79
2024/03/22 09:57:32;;;;;;;23.90;13.07;;;13.00;58.70;;;;;;5058228;28;20203;-79
2024/03/22 09:59:59;;;;;;;21.67;13.20;;;13.00;38.10;;;;;;5061448;28;20205;-80
2024/03/22 10:02:26;;;;;;;21.23;13.10;;;13.00;43.50;;;;;;5065756;28;20801;-79
2024/03/22 10:04:53;;;;;;;20.43;12.17;;;13.10;1.00;;;;;;5055071;28;20246;-79
2024/03/22 10:07:20;;;;;;;22.37;11.77;;;13.10;1.00;;;;;;5067724;28;20272;-80
2024/03/22 10:09:47;;;;;;;19.90;11.83;;;13.00;1.00;;;;;;5063895;28;20294;-80
2024/03/22 10:12:13;;;;;;;19.87;11.73;;;13.10;1.00;;;;;;5053333;28;20248;-80
2024/03/22 10:14:44;;;;;;;19.60;11.33;;;13.10;1.00;;;;;;5051927;28;20219;-79
2024/03/22 10:17:10;;;;;;;20.93;11.63;;;13.10;1.00;;;;;;5052881;28;20198;-80
2024/03/22 10:19:40;;;;;;;18.93;10.60;;;13.20;1.00;;;;;;5063008;28;20257;-79
2024/03/22 10:22:06;;;;;;;18.17;10.60;;;13.20;1.00;;;;;;5054104;28;20234;-79
2024/03/22 10:24:34;;;;;;;18.50;10.27;;;13.20;1.00;;;;;;5047313;28;20232;-80
2024/03/22 10:27:01;;;;;;;18.47;10.33;;;13.30;1.00;;;;;;5048201;28;20231;-80
2024/03/22 10:29:28;;;;;;;16.17;9.63;;;13.30;1.00;;;;;;5048040;28;20226;-79
2024/03/22 10:31:55;;;;;;;16.97;10.20;;;13.30;1.00;;;;;;5044225;28;20223;-79
2024/03/22 10:34:23;;;;;;;15.53;9.27;;;13.30;1.00;;;;;;5048149;28;20584;-80
2024/03/22 10:36:49;;;;;;;16.93;9.43;;;13.30;1.00;;;;;;5057678;28;20207;-80
2024/03/22 10:39:19;;;;;;;15.97;9.73;;;13.40;1.00;;;;;;5050770;28;20210;-80
2024/03/22 10:41:47;;;;;;;15.97;8.93;;;13.50;1.00;;;;;;5055794;28;20226;-80
2024/03/22 10:44:15;;;;;;;15.53;8.83;;;13.40;1.00;;;;;;5052666;28;20661;-80
2024/03/22 10:46:44;;;;;;;13.83;7.97;;;13.50;1.00;;;;;;5051334;28;20198;-80
2024/03/22 10:49:16;;;;;;;14.75;9.00;;;13.40;1.00;;;;;;5054116;28;20569;-80
2024/03/22 10:51:44;;;;;;;14.33;8.57;;;13.40;1.00;;;;;;5062279;28;20311;-80
2024/03/22 10:54:14;;;;;;;15.77;8.87;;;13.30;1.00;;;;;;5060920;28;20220;-80
2024/03/22 10:56:41;;;;;;;16.57;8.77;;;13.20;1.00;;;;;;5056779;28;20198;-79
2024/03/22 10:59:09;;;;;;;14.40;8.77;;;13.10;99.90;;;;;;5055837;28;20203;-79
2024/03/22 11:01:37;;;;;;;14.93;8.53;;;12.80;99.90;;;;;;5067751;28;20254;-79
2024/03/22 11:04:06;;;;;;;18.67;8.77;;;12.60;99.90;;;;;;5065374;28;20719;-79
2024/03/22 11:06:32;;;;;;;15.97;8.83;;;12.50;99.90;;;;;;5058017;28;20206;-80
2024/03/22 11:09:02;;;;;;;16.13;8.80;;;12.50;1.00;;;;;;5052265;28;20195;-80
2024/03/22 11:11:29;;;;;;;16.47;9.20;;;12.50;1.00;;;;;;5051766;28;21132;-81
2024/03/22 11:13:57;;;;;;;17.07;9.17;;;12.60;1.00;;;;;;5057731;28;20637;-80
2024/03/22 11:16:24;;;;;;;17.60;10.47;;;12.60;1.00;;;;;;5054756;28;20672;-80
2024/03/22 11:18:51;;;;;;;17.40;10.03;;;12.60;1.00;;;;;;5059191;28;20624;-80
2024/03/22 11:21:18;;;;;;;16.77;9.57;;;12.70;1.00;;;;;;5057386;28;20264;-80
2024/03/22 11:23:46;;;;;;;15.47;9.33;;;12.70;1.00;;;;;;5055376;28;20309;-80
2024/03/22 11:26:12;;;;;;;15.83;9.43;;;12.70;1.00;;;;;;5056120;28;20597;-79
2024/03/22 11:28:39;;;;;;;15.10;9.27;;;12.70;1.00;;;;;;5054969;28;20264;-79
2024/03/22 11:31:05;;;;;;;15.77;9.03;;;12.80;1.00;;;;;;5052462;28;20289;-79
2024/03/22 11:33:34;;;;;;;14.63;9.53;;;12.80;1.00;;;;;;5055820;28;20230;-80
2024/03/22 11:36:00;;;;;;;14.63;8.47;;;12.90;1.00;;;;;;5052050;28;20203;-80
2024/03/22 11:38:28;;;;;;;16.00;9.10;;;12.90;1.00;;;;;;5055212;28;20734;-80
2024/03/22 11:40:57;;;;;;;15.47;9.23;;;12.90;1.00;;;;;;5058144;28;20690;-80
2024/03/22 11:43:24;;;;;;;16.77;10.13;;;12.90;1.00;;;;;;5052858;28;20262;-80
2024/03/22 11:45:50;;;;;;;15.50;9.93;;;12.90;1.00;;;;;;5064418;28;20273;-80
2024/03/22 11:48:17;;;;;;;14.87;9.23;;;12.90;1.00;;;;;;5047766;28;20223;-80
2024/03/22 11:50:46;;;;;;;16.97;9.40;;;13.00;1.00;;;;;;5060288;28;20577;-80
2024/03/22 11:53:13;;;;;;;17.37;10.47;;;13.10;1.00;;;;;;5052891;28;20229;-80
2024/03/22 11:55:39;;;;;;;15.57;9.80;;;13.10;1.00;;;;;;5059996;28;20342;-80
2024/03/22 11:58:06;;;;;;;15.60;9.30;;;13.10;99.90;;;;;;5058091;28;20226;-80
2024/03/22 12:00:32;;;;;;;17.30;9.57;;;13.10;99.90;;;;;;5059418;28;20200;-80
2024/03/22 12:02:59;;;;;;;15.93;8.87;;;13.20;1.00;;;;;;5057525;28;20722;-80
2024/03/22 12:05:26;;;;;;;16.17;9.03;;;13.30;1.00;;;;;;5049425;28;20269;-80
2024/03/22 12:07:54;;;;;;;16.67;9.73;;;13.30;1.00;;;;;;5057341;28;20207;-80
2024/03/22 12:10:20;;;;;;;17.10;9.30;;;13.30;1.00;;;;;;5054486;28;20206;-80
2024/03/22 12:12:47;;;;;;;15.73;9.87;;;13.30;1.00;;;;;;5048658;28;20225;-80
2024/03/22 12:15:13;;;;;;;17.97;10.47;;;13.20;1.00;;;;;;5053277;28;20752;-80
2024/03/22 12:17:42;;;;;;;15.53;8.93;;;13.30;1.00;;;;;;5047278;28;20681;-80
2024/03/22 12:20:14;;;;;;;16.17;10.07;;;13.30;1.00;;;;;;5054151;28;20214;-80
2024/03/22 12:22:42;;;;;;;15.07;8.73;;;13.30;1.00;;;;;;5048897;28;20310;-80
2024/03/22 12:25:11;;;;;;;16.47;9.33;;;13.30;1.00;;;;;;5050457;28;20254;-79
2024/03/22 12:27:38;;;;;;;16.73;9.60;;;13.30;1.00;;;;;;5060125;28;20285;-79
2024/03/22 12:30:06;;;;;;;15.87;9.70;;;13.30;1.00;;;;;;5052586;28;20297;-78
2024/03/22 12:32:33;;;;;;;15.00;10.23;;;13.30;1.00;;;;;;5058624;28;20229;-78
2024/03/22 12:34:59;;;;;;;15.93;9.83;;;13.30;1.00;;;;;;5051960;28;20330;-78
2024/03/22 12:37:26;;;;;;;17.17;9.67;;;13.40;1.00;;;;;;5046566;28;20273;-78
2024/03/22 12:39:52;;;;;;;17.40;9.67;;;13.30;1.00;;;;;;5056591;28;20237;-78